Check out our new PWSWeather beta!
PWSweather.com
Personal Weather Stations
Station Observations
WD4JKH
Forsyth, GA 31029

Forsyth, GA 31029

Lat: 33.033225, Lon: -83.927995

Elevation: 709

Station Type: Davis Vantage VUE

High Low Average
Temperature 65.0°F18.3°C 45.5°F7.5°C 54.5°F12.5°C
Dew Point 43.5°F6.4°C 36.9°F2.7°C 39.8°F4.3°C
Winds 6.2 mph 10.0 kmh Calm Calm 2.0 mph SW3.2 kmh SW
Wind Gusts 15.0 mph24.1 kmh -- 7.0 mph11.3 kmh
Humidity 78% 37% 59%
Pressure 30.26 in1024.7 mb 29.99 in1015.6 mb -
Precipitation 0.00 in0.0 mm - -
Hour Temp Dew Point Humidity Winds Wind Gusts Pressure Precip Precip Rate Daily Precip Total
12:03 AM 50.9°F10.5°C 43.0°F6.1°C 74% 1.7 mph WSW2.7 kmh WSW 8.0 mph12.9 kmh 29.99 in1015.6 mb 0.00 in0.0 mm 0.00 in0.0 mm 0.00 in0.0 mm
12:08 AM 50.9°F10.5°C 43.3°F6.3°C 75% 1.9 mph WSW3.1 kmh WSW 8.0 mph12.9 kmh 29.99 in1015.6 mb 0.00 in0.0 mm 0.00 in0.0 mm 0.00 in0.0 mm
12:13 AM 50.9°F10.5°C 43.3°F6.3°C 75% 3.4 mph WSW5.5 kmh WSW 8.0 mph12.9 kmh 30.00 in1015.9 mb 0.00 in0.0 mm 0.00 in0.0 mm 0.00 in0.0 mm
12:18 AM 50.8°F10.4°C 43.2°F6.2°C 75% 1.8 mph WSW2.9 kmh WSW 8.0 mph12.9 kmh 30.00 in1015.9 mb 0.00 in0.0 mm 0.00 in0.0 mm 0.00 in0.0 mm
12:23 AM 50.6°F10.3°C 43.0°F6.1°C 75% 2.1 mph W3.4 kmh W 7.0 mph11.3 kmh 30.00 in1015.9 mb 0.00 in0.0 mm 0.00 in0.0 mm 0.00 in0.0 mm
12:28 AM 50.6°F10.3°C 43.0°F6.1°C 75% 2.2 mph W3.5 kmh W 7.0 mph11.3 kmh 30.00 in1015.9 mb 0.00 in0.0 mm 0.00 in0.0 mm 0.00 in0.0 mm
12:33 AM 50.8°F10.4°C 43.2°F6.2°C 75% 2.7 mph W4.3 kmh W 7.0 mph11.3 kmh 30.00 in1015.9 mb 0.00 in0.0 mm 0.00 in0.0 mm 0.00 in0.0 mm
12:38 AM 50.7°F10.4°C 43.1°F6.2°C 75% 2.9 mph W4.7 kmh W 7.0 mph11.3 kmh 30.00 in1015.9 mb 0.00 in0.0 mm 0.00 in0.0 mm 0.00 in0.0 mm
12:43 AM 50.7°F10.4°C 43.1°F6.2°C 75% 3.0 mph W4.8 kmh W 7.0 mph11.3 kmh 30.00 in1015.9 mb 0.00 in0.0 mm 0.00 in0.0 mm 0.00 in0.0 mm
12:48 AM 50.6°F10.3°C 43.4°F6.3°C 76% 2.9 mph W4.7 kmh W 8.0 mph12.9 kmh 30.01 in1016.3 mb 0.00 in0.0 mm 0.00 in0.0 mm 0.00 in0.0 mm
12:53 AM 50.5°F10.3°C 43.3°F6.3°C 76% 2.3 mph W3.7 kmh W 8.0 mph12.9 kmh 30.01 in1016.3 mb 0.00 in0.0 mm 0.00 in0.0 mm 0.00 in0.0 mm
12:58 AM 50.5°F10.3°C 43.3°F6.3°C 76% 2.4 mph W3.9 kmh W 8.0 mph12.9 kmh 30.01 in1016.3 mb 0.00 in0.0 mm 0.00 in0.0 mm 0.00 in0.0 mm
01:03 AM 50.4°F10.2°C 43.1°F6.2°C 76% 2.6 mph W4.2 kmh W 8.0 mph12.9 kmh 30.01 in1016.3 mb 0.00 in0.0 mm 0.00 in0.0 mm 0.00 in0.0 mm
01:08 AM 50.5°F10.3°C 43.2°F6.2°C 76% 2.7 mph WSW4.3 kmh WSW 8.0 mph12.9 kmh 30.01 in1016.3 mb 0.00 in0.0 mm 0.00 in0.0 mm 0.00 in0.0 mm
01:13 AM 50.5°F10.3°C 43.2°F6.2°C 76% 2.7 mph W4.3 kmh W 8.0 mph12.9 kmh 30.01 in1016.3 mb 0.00 in0.0 mm 0.00 in0.0 mm 0.00 in0.0 mm
01:18 AM 50.6°F10.3°C 43.4°F6.3°C 76% 2.4 mph W3.9 kmh W 7.0 mph11.3 kmh 30.01 in1016.3 mb 0.00 in0.0 mm 0.00 in0.0 mm 0.00 in0.0 mm
01:23 AM 50.8°F10.4°C 43.2°F6.2°C 75% 3.4 mph WNW5.5 kmh WNW 8.0 mph12.9 kmh 30.01 in1016.3 mb 0.00 in0.0 mm 0.00 in0.0 mm 0.00 in0.0 mm
01:28 AM 51.3°F10.7°C 43.4°F6.3°C 74% 4.2 mph WNW6.8 kmh WNW 8.0 mph12.9 kmh 30.02 in1016.6 mb 0.00 in0.0 mm 0.00 in0.0 mm 0.00 in0.0 mm
01:33 AM 51.6°F10.9°C 43.3°F6.3°C 73% 5.0 mph WNW8.0 kmh WNW 8.0 mph12.9 kmh 30.02 in1016.6 mb 0.00 in0.0 mm 0.00 in0.0 mm 0.00 in0.0 mm
01:38 AM 51.8°F11.0°C 43.5°F6.4°C 73% 4.3 mph WNW6.9 kmh WNW 9.0 mph14.5 kmh 30.02 in1016.6 mb 0.00 in0.0 mm 0.00 in0.0 mm 0.00 in0.0 mm
01:43 AM 51.9°F11.1°C 43.3°F6.3°C 72% 3.5 mph NW5.6 kmh NW 9.0 mph14.5 kmh 30.02 in1016.6 mb 0.00 in0.0 mm 0.00 in0.0 mm 0.00 in0.0 mm
01:48 AM 52.0°F11.1°C 43.4°F6.3°C 72% 3.1 mph WNW5.0 kmh WNW 10.0 mph16.1 kmh 30.02 in1016.6 mb 0.00 in0.0 mm 0.00 in0.0 mm 0.00 in0.0 mm
01:53 AM 51.9°F11.1°C 43.2°F6.2°C 72% 4.2 mph WNW6.8 kmh WNW 12.0 mph19.3 kmh 30.02 in1016.6 mb 0.00 in0.0 mm 0.00 in0.0 mm 0.00 in0.0 mm
01:58 AM 51.9°F11.1°C 43.2°F6.2°C 72% 3.1 mph WNW5.0 kmh WNW 12.0 mph19.3 kmh 30.02 in1016.6 mb 0.00 in0.0 mm 0.00 in0.0 mm 0.00 in0.0 mm
02:03 AM 51.8°F11.0°C 43.2°F6.2°C 72% 4.0 mph WNW6.4 kmh WNW 12.0 mph19.3 kmh 30.02 in1016.6 mb 0.00 in0.0 mm 0.00 in0.0 mm 0.00 in0.0 mm
02:08 AM 51.8°F11.0°C 43.2°F6.2°C 72% 5.3 mph WNW8.5 kmh WNW 12.0 mph19.3 kmh 30.02 in1016.6 mb 0.00 in0.0 mm 0.00 in0.0 mm 0.00 in0.0 mm
02:13 AM 51.7°F10.9°C 43.1°F6.2°C 72% 3.9 mph WNW6.3 kmh WNW 10.0 mph16.1 kmh 30.02 in1016.6 mb 0.00 in0.0 mm 0.00 in0.0 mm 0.00 in0.0 mm
02:18 AM 51.5°F10.8°C 42.9°F6.1°C 72% 3.9 mph NW6.3 kmh NW 10.0 mph16.1 kmh 30.02 in1016.6 mb 0.00 in0.0 mm 0.00 in0.0 mm 0.00 in0.0 mm
02:23 AM 51.3°F10.7°C 43.0°F6.1°C 73% 3.5 mph NW5.6 kmh NW 10.0 mph16.1 kmh 30.02 in1016.6 mb 0.00 in0.0 mm 0.00 in0.0 mm 0.00 in0.0 mm
02:28 AM 51.1°F10.6°C 42.8°F6.0°C 73% 4.0 mph WNW6.4 kmh WNW 10.0 mph16.1 kmh 30.03 in1016.9 mb 0.00 in0.0 mm 0.00 in0.0 mm 0.00 in0.0 mm
02:33 AM 50.9°F10.5°C 43.0°F6.1°C 74% 2.8 mph WNW4.5 kmh WNW 9.0 mph14.5 kmh 30.03 in1016.9 mb 0.00 in0.0 mm 0.00 in0.0 mm 0.00 in0.0 mm
02:38 AM 50.7°F10.4°C 42.8°F6.0°C 74% 4.0 mph NW6.4 kmh NW 9.0 mph14.5 kmh 30.03 in1016.9 mb 0.00 in0.0 mm 0.00 in0.0 mm 0.00 in0.0 mm
02:43 AM 50.5°F10.3°C 42.5°F5.8°C 74% 4.6 mph WNW7.4 kmh WNW 10.0 mph16.1 kmh 30.03 in1016.9 mb 0.00 in0.0 mm 0.00 in0.0 mm 0.00 in0.0 mm
02:47 AM 50.3°F10.2°C 42.3°F5.7°C 74% 3.0 mph WNW4.8 kmh WNW 10.0 mph16.1 kmh 30.03 in1016.9 mb 0.00 in0.0 mm 0.00 in0.0 mm 0.00 in0.0 mm
02:52 AM 50.2°F10.1°C 42.2°F5.7°C 74% 3.3 mph WNW5.3 kmh WNW 10.0 mph16.1 kmh 30.03 in1016.9 mb 0.00 in0.0 mm 0.00 in0.0 mm 0.00 in0.0 mm
02:57 AM 50.1°F10.1°C 42.5°F5.8°C 75% 3.5 mph NW5.6 kmh NW 11.0 mph17.7 kmh 30.04 in1017.3 mb 0.00 in0.0 mm 0.00 in0.0 mm 0.00 in0.0 mm
03:02 AM 49.9°F9.9°C 42.4°F5.8°C 75% 2.9 mph NW4.7 kmh NW 11.0 mph17.7 kmh 30.04 in1017.3 mb 0.00 in0.0 mm 0.00 in0.0 mm 0.00 in0.0 mm
03:07 AM 49.7°F9.8°C 42.2°F5.7°C 75% 4.4 mph WNW7.1 kmh WNW 11.0 mph17.7 kmh 30.04 in1017.3 mb 0.00 in0.0 mm 0.00 in0.0 mm 0.00 in0.0 mm
03:12 AM 49.6°F9.8°C 42.1°F5.6°C 75% 3.5 mph WNW5.6 kmh WNW 11.0 mph17.7 kmh 30.05 in1017.6 mb 0.00 in0.0 mm 0.00 in0.0 mm 0.00 in0.0 mm
03:17 AM 49.5°F9.7°C 42.0°F5.6°C 75% 3.8 mph NW6.1 kmh NW 9.0 mph14.5 kmh 30.05 in1017.6 mb 0.00 in0.0 mm 0.00 in0.0 mm 0.00 in0.0 mm
03:22 AM 49.4°F9.7°C 41.9°F5.5°C 75% 3.7 mph WNW6.0 kmh WNW 9.0 mph14.5 kmh 30.05 in1017.6 mb 0.00 in0.0 mm 0.00 in0.0 mm 0.00 in0.0 mm
03:27 AM 49.3°F9.6°C 41.8°F5.4°C 75% 2.8 mph NW4.5 kmh NW 9.0 mph14.5 kmh 30.05 in1017.6 mb 0.00 in0.0 mm 0.00 in0.0 mm 0.00 in0.0 mm
03:32 AM 49.2°F9.6°C 41.7°F5.4°C 75% 2.5 mph WNW4.0 kmh WNW 9.0 mph14.5 kmh 30.06 in1017.9 mb 0.00 in0.0 mm 0.00 in0.0 mm 0.00 in0.0 mm
03:37 AM 49.1°F9.5°C 41.6°F5.3°C 75% 4.8 mph WNW7.7 kmh WNW 9.0 mph14.5 kmh 30.05 in1017.6 mb 0.00 in0.0 mm 0.00 in0.0 mm 0.00 in0.0 mm
03:42 AM 48.9°F9.4°C 41.4°F5.2°C 75% 2.8 mph WNW4.5 kmh WNW 9.0 mph14.5 kmh 30.06 in1017.9 mb 0.00 in0.0 mm 0.00 in0.0 mm 0.00 in0.0 mm
03:47 AM 48.8°F9.3°C 41.3°F5.2°C 75% 2.8 mph NW4.5 kmh NW 9.0 mph14.5 kmh 30.06 in1017.9 mb 0.00 in0.0 mm 0.00 in0.0 mm 0.00 in0.0 mm
03:52 AM 48.7°F9.3°C 41.2°F5.1°C 75% 2.9 mph NW4.7 kmh NW 9.0 mph14.5 kmh 30.06 in1017.9 mb 0.00 in0.0 mm 0.00 in0.0 mm 0.00 in0.0 mm
03:57 AM 48.5°F9.2°C 41.3°F5.2°C 76% 2.3 mph WNW3.7 kmh WNW 8.0 mph12.9 kmh 30.06 in1017.9 mb 0.00 in0.0 mm 0.00 in0.0 mm 0.00 in0.0 mm
04:02 AM 48.4°F9.1°C 41.2°F5.1°C 76% 2.5 mph NW4.0 kmh NW 7.0 mph11.3 kmh 30.06 in1017.9 mb 0.00 in0.0 mm 0.00 in0.0 mm 0.00 in0.0 mm
04:07 AM 48.4°F9.1°C 41.2°F5.1°C 76% 3.4 mph NW5.5 kmh NW 8.0 mph12.9 kmh 30.06 in1017.9 mb 0.00 in0.0 mm 0.00 in0.0 mm 0.00 in0.0 mm
04:12 AM 48.3°F9.1°C 41.1°F5.1°C 76% 1.9 mph NW3.1 kmh NW 8.0 mph12.9 kmh 30.07 in1018.3 mb 0.00 in0.0 mm 0.00 in0.0 mm 0.00 in0.0 mm
04:17 AM 48.1°F8.9°C 40.9°F4.9°C 76% 1.8 mph NW2.9 kmh NW 8.0 mph12.9 kmh 30.07 in1018.3 mb 0.00 in0.0 mm 0.00 in0.0 mm 0.00 in0.0 mm
04:22 AM 47.9°F8.8°C 41.0°F5.0°C 77% 3.3 mph NW5.3 kmh NW 8.0 mph12.9 kmh 30.07 in1018.3 mb 0.00 in0.0 mm 0.00 in0.0 mm 0.00 in0.0 mm
04:27 AM 47.7°F8.7°C 40.9°F4.9°C 77% 2.8 mph NW4.5 kmh NW 8.0 mph12.9 kmh 30.07 in1018.3 mb 0.00 in0.0 mm 0.00 in0.0 mm 0.00 in0.0 mm
04:32 AM 47.5°F8.6°C 40.7°F4.8°C 77% 3.1 mph NW5.0 kmh NW 6.0 mph9.7 kmh 30.07 in1018.3 mb 0.00 in0.0 mm 0.00 in0.0 mm 0.00 in0.0 mm
04:37 AM 47.4°F8.6°C 40.6°F4.8°C 77% 2.3 mph NW3.7 kmh NW 6.0 mph9.7 kmh 30.07 in1018.3 mb 0.00 in0.0 mm 0.00 in0.0 mm 0.00 in0.0 mm
04:42 AM 47.3°F8.5°C 40.5°F4.7°C 77% 2.4 mph WNW3.9 kmh WNW 7.0 mph11.3 kmh 30.07 in1018.3 mb 0.00 in0.0 mm 0.00 in0.0 mm 0.00 in0.0 mm
04:47 AM 47.3°F8.5°C 40.5°F4.7°C 77% 3.8 mph NW6.1 kmh NW 8.0 mph12.9 kmh 30.08 in1018.6 mb 0.00 in0.0 mm 0.00 in0.0 mm 0.00 in0.0 mm
04:52 AM 47.3°F8.5°C 40.5°F4.7°C 77% 3.8 mph NW6.1 kmh NW 9.0 mph14.5 kmh 30.08 in1018.6 mb 0.00 in0.0 mm 0.00 in0.0 mm 0.00 in0.0 mm
04:57 AM 47.2°F8.4°C 40.4°F4.7°C 77% 3.5 mph NW5.6 kmh NW 9.0 mph14.5 kmh 30.08 in1018.6 mb 0.00 in0.0 mm 0.00 in0.0 mm 0.00 in0.0 mm
05:02 AM 47.3°F8.5°C 40.2°F4.6°C 76% 4.3 mph NW6.9 kmh NW 11.0 mph17.7 kmh 30.08 in1018.6 mb 0.00 in0.0 mm 0.00 in0.0 mm 0.00 in0.0 mm
05:07 AM 47.2°F8.4°C 40.1°F4.5°C 76% 3.7 mph NW6.0 kmh NW 11.0 mph17.7 kmh 30.09 in1019.0 mb 0.00 in0.0 mm 0.00 in0.0 mm 0.00 in0.0 mm
05:12 AM 47.2°F8.4°C 40.1°F4.5°C 76% 3.4 mph NW5.5 kmh NW 11.0 mph17.7 kmh 30.09 in1019.0 mb 0.00 in0.0 mm 0.00 in0.0 mm 0.00 in0.0 mm
05:17 AM 47.2°F8.4°C 40.1°F4.5°C 76% 4.9 mph NW7.9 kmh NW 11.0 mph17.7 kmh 30.10 in1019.3 mb 0.00 in0.0 mm 0.00 in0.0 mm 0.00 in0.0 mm
05:22 AM 47.3°F8.5°C 39.8°F4.3°C 75% 5.5 mph NW8.9 kmh NW 11.0 mph17.7 kmh 30.10 in1019.3 mb 0.00 in0.0 mm 0.00 in0.0 mm 0.00 in0.0 mm
05:27 AM 47.2°F8.4°C 39.7°F4.3°C 75% 5.0 mph NW8.0 kmh NW 11.0 mph17.7 kmh 30.10 in1019.3 mb 0.00 in0.0 mm 0.00 in0.0 mm 0.00 in0.0 mm
05:32 AM 47.1°F8.4°C 39.7°F4.3°C 75% 3.5 mph NW5.6 kmh NW 11.0 mph17.7 kmh 30.10 in1019.3 mb 0.00 in0.0 mm 0.00 in0.0 mm 0.00 in0.0 mm
05:37 AM 47.1°F8.4°C 39.7°F4.3°C 75% 2.6 mph NW4.2 kmh NW 11.0 mph17.7 kmh 30.10 in1019.3 mb 0.00 in0.0 mm 0.00 in0.0 mm 0.00 in0.0 mm
05:42 AM 47.1°F8.4°C 39.7°F4.3°C 75% 4.4 mph NW7.1 kmh NW 11.0 mph17.7 kmh 30.11 in1019.6 mb 0.00 in0.0 mm 0.00 in0.0 mm 0.00 in0.0 mm
05:47 AM 47.0°F8.3°C 39.6°F4.2°C 75% 3.7 mph WNW6.0 kmh WNW 11.0 mph17.7 kmh 30.11 in1019.6 mb 0.00 in0.0 mm 0.00 in0.0 mm 0.00 in0.0 mm
05:52 AM 46.9°F8.3°C 39.5°F4.2°C 75% 2.8 mph NW4.5 kmh NW 11.0 mph17.7 kmh 30.11 in1019.6 mb 0.00 in0.0 mm 0.00 in0.0 mm 0.00 in0.0 mm
05:57 AM 46.9°F8.3°C 39.5°F4.2°C 75% 4.3 mph NW6.9 kmh NW 11.0 mph17.7 kmh 30.11 in1019.6 mb 0.00 in0.0 mm 0.00 in0.0 mm 0.00 in0.0 mm
06:02 AM 46.9°F8.3°C 39.5°F4.2°C 75% 3.3 mph WNW5.3 kmh WNW 9.0 mph14.5 kmh 30.11 in1019.6 mb 0.00 in0.0 mm 0.00 in0.0 mm 0.00 in0.0 mm
06:07 AM 46.7°F8.2°C 39.6°F4.2°C 76% 2.1 mph NW3.4 kmh NW 9.0 mph14.5 kmh 30.11 in1019.6 mb 0.00 in0.0 mm 0.00 in0.0 mm 0.00 in0.0 mm
06:12 AM 46.5°F8.1°C 39.4°F4.1°C 76% 3.4 mph WNW5.5 kmh WNW 9.0 mph14.5 kmh 30.12 in1020.0 mb 0.00 in0.0 mm 0.00 in0.0 mm 0.00 in0.0 mm
06:17 AM 46.4°F8.0°C 39.3°F4.1°C 76% 4.2 mph NW6.8 kmh NW 9.0 mph14.5 kmh 30.12 in1020.0 mb 0.00 in0.0 mm 0.00 in0.0 mm 0.00 in0.0 mm
06:22 AM 46.3°F7.9°C 39.5°F4.2°C 77% 2.6 mph NW4.2 kmh NW 9.0 mph14.5 kmh 30.12 in1020.0 mb 0.00 in0.0 mm 0.00 in0.0 mm 0.00 in0.0 mm
06:27 AM 46.2°F7.9°C 39.4°F4.1°C 77% 2.6 mph NW4.2 kmh NW 10.0 mph16.1 kmh 30.12 in1020.0 mb 0.00 in0.0 mm 0.00 in0.0 mm 0.00 in0.0 mm
06:32 AM 46.0°F7.8°C 39.2°F4.0°C 77% 3.5 mph WNW5.6 kmh WNW 10.0 mph16.1 kmh 30.12 in1020.0 mb 0.00 in0.0 mm 0.00 in0.0 mm 0.00 in0.0 mm
06:37 AM 45.9°F7.7°C 39.1°F3.9°C 77% 3.8 mph WNW6.1 kmh WNW 10.0 mph16.1 kmh 30.13 in1020.3 mb 0.00 in0.0 mm 0.00 in0.0 mm 0.00 in0.0 mm
06:42 AM 45.9°F7.7°C 39.1°F3.9°C 77% 4.2 mph WNW6.8 kmh WNW 10.0 mph16.1 kmh 30.13 in1020.3 mb 0.00 in0.0 mm 0.00 in0.0 mm 0.00 in0.0 mm
06:47 AM 45.8°F7.7°C 39.0°F3.9°C 77% 3.6 mph NW5.8 kmh NW 10.0 mph16.1 kmh 30.13 in1020.3 mb 0.00 in0.0 mm 0.00 in0.0 mm 0.00 in0.0 mm
06:52 AM 45.7°F7.6°C 39.0°F3.9°C 77% 3.5 mph WNW5.6 kmh WNW 10.0 mph16.1 kmh 30.14 in1020.7 mb 0.00 in0.0 mm 0.00 in0.0 mm 0.00 in0.0 mm
06:57 AM 45.7°F7.6°C 39.3°F4.1°C 78% 4.2 mph WNW6.8 kmh WNW 11.0 mph17.7 kmh 30.14 in1020.7 mb 0.00 in0.0 mm 0.00 in0.0 mm 0.00 in0.0 mm
07:02 AM 45.6°F7.6°C 39.1°F3.9°C 78% 3.9 mph NW6.3 kmh NW 11.0 mph17.7 kmh 30.14 in1020.7 mb 0.00 in0.0 mm 0.00 in0.0 mm 0.00 in0.0 mm
07:07 AM 45.6°F7.6°C 39.1°F3.9°C 78% 3.3 mph NW5.3 kmh NW 11.0 mph17.7 kmh 30.14 in1020.7 mb 0.00 in0.0 mm 0.00 in0.0 mm 0.00 in0.0 mm
07:12 AM 45.5°F7.5°C 39.0°F3.9°C 78% 2.8 mph NW4.5 kmh NW 9.0 mph14.5 kmh 30.14 in1020.7 mb 0.00 in0.0 mm 0.00 in0.0 mm 0.00 in0.0 mm
07:17 AM 45.5°F7.5°C 39.0°F3.9°C 78% 4.3 mph NW6.9 kmh NW 10.0 mph16.1 kmh 30.14 in1020.7 mb 0.00 in0.0 mm 0.00 in0.0 mm 0.00 in0.0 mm
07:22 AM 45.5°F7.5°C 39.1°F3.9°C 78% 3.1 mph NW5.0 kmh NW 10.0 mph16.1 kmh 30.15 in1021.0 mb 0.00 in0.0 mm 0.00 in0.0 mm 0.00 in0.0 mm
07:27 AM 45.6°F7.6°C 39.2°F4.0°C 78% 3.6 mph NW5.8 kmh NW 10.0 mph16.1 kmh 30.15 in1021.0 mb 0.00 in0.0 mm 0.00 in0.0 mm 0.00 in0.0 mm
07:32 AM 45.7°F7.6°C 39.3°F4.1°C 78% 3.9 mph NW6.3 kmh NW 10.0 mph16.1 kmh 30.15 in1021.0 mb 0.00 in0.0 mm 0.00 in0.0 mm 0.00 in0.0 mm
07:37 AM 45.7°F7.6°C 39.3°F4.1°C 78% 3.7 mph NW6.0 kmh NW 10.0 mph16.1 kmh 30.15 in1021.0 mb 0.00 in0.0 mm 0.00 in0.0 mm 0.00 in0.0 mm
07:42 AM 45.8°F7.7°C 39.4°F4.1°C 78% 2.5 mph NW4.0 kmh NW 10.0 mph16.1 kmh 30.16 in1021.3 mb 0.00 in0.0 mm 0.00 in0.0 mm 0.00 in0.0 mm
07:47 AM 45.9°F7.7°C 39.1°F3.9°C 77% 3.0 mph NW4.8 kmh NW 9.0 mph14.5 kmh 30.16 in1021.3 mb 0.00 in0.0 mm 0.00 in0.0 mm 0.00 in0.0 mm
07:52 AM 46.0°F7.8°C 39.2°F4.0°C 77% 3.2 mph NW5.1 kmh NW 9.0 mph14.5 kmh 30.16 in1021.3 mb 0.00 in0.0 mm 0.00 in0.0 mm 0.00 in0.0 mm
07:57 AM 46.2°F7.9°C 39.4°F4.1°C 77% 3.4 mph NW5.5 kmh NW 9.0 mph14.5 kmh 30.16 in1021.3 mb 0.00 in0.0 mm 0.00 in0.0 mm 0.00 in0.0 mm
08:02 AM 46.5°F8.1°C 39.4°F4.1°C 76% 2.7 mph NW4.3 kmh NW 9.0 mph14.5 kmh 30.17 in1021.7 mb 0.00 in0.0 mm 0.00 in0.0 mm 0.00 in0.0 mm
08:07 AM 46.8°F8.2°C 39.7°F4.3°C 76% 3.0 mph NW4.8 kmh NW 9.0 mph14.5 kmh 30.17 in1021.7 mb 0.00 in0.0 mm 0.00 in0.0 mm 0.00 in0.0 mm
08:12 AM 47.1°F8.4°C 39.7°F4.3°C 75% 3.1 mph NW5.0 kmh NW 10.0 mph16.1 kmh 30.17 in1021.7 mb 0.00 in0.0 mm 0.00 in0.0 mm 0.00 in0.0 mm
08:17 AM 47.4°F8.6°C 39.9°F4.4°C 75% 2.9 mph NW4.7 kmh NW 10.0 mph16.1 kmh 30.18 in1022.0 mb 0.00 in0.0 mm 0.00 in0.0 mm 0.00 in0.0 mm
08:22 AM 47.6°F8.7°C 39.8°F4.3°C 74% 3.7 mph NW6.0 kmh NW 10.0 mph16.1 kmh 30.17 in1021.7 mb 0.00 in0.0 mm 0.00 in0.0 mm 0.00 in0.0 mm
08:27 AM 47.9°F8.8°C 40.1°F4.5°C 74% 3.8 mph NW6.1 kmh NW 10.0 mph16.1 kmh 30.18 in1022.0 mb 0.00 in0.0 mm 0.00 in0.0 mm 0.00 in0.0 mm
08:32 AM 48.1°F8.9°C 39.9°F4.4°C 73% 3.4 mph NW5.5 kmh NW 11.0 mph17.7 kmh 30.18 in1022.0 mb 0.00 in0.0 mm 0.00 in0.0 mm 0.00 in0.0 mm
08:37 AM 48.4°F9.1°C 40.2°F4.6°C 73% 4.3 mph NW6.9 kmh NW 11.0 mph17.7 kmh 30.18 in1022.0 mb 0.00 in0.0 mm 0.00 in0.0 mm 0.00 in0.0 mm
08:42 AM 48.6°F9.2°C 40.1°F4.5°C 72% 5.5 mph NNW8.9 kmh NNW 11.0 mph17.7 kmh 30.18 in1022.0 mb 0.00 in0.0 mm 0.00 in0.0 mm 0.00 in0.0 mm
08:46 AM 48.7°F9.3°C 40.2°F4.6°C 72% 4.5 mph NNW7.2 kmh NNW 11.0 mph17.7 kmh 30.18 in1022.0 mb 0.00 in0.0 mm 0.00 in0.0 mm 0.00 in0.0 mm
08:51 AM 48.9°F9.4°C 40.4°F4.7°C 72% 3.9 mph NW6.3 kmh NW 10.0 mph16.1 kmh 30.18 in1022.0 mb 0.00 in0.0 mm 0.00 in0.0 mm 0.00 in0.0 mm
08:56 AM 49.1°F9.5°C 40.5°F4.7°C 72% 3.9 mph N6.3 kmh N 10.0 mph16.1 kmh 30.18 in1022.0 mb 0.00 in0.0 mm 0.00 in0.0 mm 0.00 in0.0 mm
09:01 AM 49.5°F9.7°C 40.5°F4.7°C 71% 3.0 mph NNW4.8 kmh NNW 9.0 mph14.5 kmh 30.19 in1022.4 mb 0.00 in0.0 mm 0.00 in0.0 mm 0.00 in0.0 mm
09:06 AM 49.6°F9.8°C 40.3°F4.6°C 70% 3.6 mph NNW5.8 kmh NNW 13.0 mph20.9 kmh 30.19 in1022.4 mb 0.00 in0.0 mm 0.00 in0.0 mm 0.00 in0.0 mm
09:11 AM 49.9°F9.9°C 40.6°F4.8°C 70% 3.4 mph NNW5.5 kmh NNW 15.0 mph24.1 kmh 30.19 in1022.4 mb 0.00 in0.0 mm 0.00 in0.0 mm 0.00 in0.0 mm
09:16 AM 50.1°F10.1°C 40.4°F4.7°C 69% 5.2 mph NNW8.4 kmh NNW 15.0 mph24.1 kmh 30.19 in1022.4 mb 0.00 in0.0 mm 0.00 in0.0 mm 0.00 in0.0 mm
09:21 AM 50.3°F10.2°C 40.2°F4.6°C 68% 5.5 mph NNW8.9 kmh NNW 15.0 mph24.1 kmh 30.20 in1022.7 mb 0.00 in0.0 mm 0.00 in0.0 mm 0.00 in0.0 mm
09:26 AM 50.7°F10.4°C 41.0°F5.0°C 69% 2.8 mph N4.5 kmh N 15.0 mph24.1 kmh 30.20 in1022.7 mb 0.00 in0.0 mm 0.00 in0.0 mm 0.00 in0.0 mm
09:31 AM 51.0°F10.6°C 40.9°F4.9°C 68% 3.5 mph NW5.6 kmh NW 11.0 mph17.7 kmh 30.20 in1022.7 mb 0.00 in0.0 mm 0.00 in0.0 mm 0.00 in0.0 mm
09:36 AM 51.3°F10.7°C 40.7°F4.8°C 67% 3.4 mph NNW5.5 kmh NNW 11.0 mph17.7 kmh 30.20 in1022.7 mb 0.00 in0.0 mm 0.00 in0.0 mm 0.00 in0.0 mm
09:41 AM 51.8°F11.0°C 41.2°F5.1°C 67% 1.8 mph N2.9 kmh N 11.0 mph17.7 kmh 30.20 in1022.7 mb 0.00 in0.0 mm 0.00 in0.0 mm 0.00 in0.0 mm
09:46 AM 52.0°F11.1°C 40.6°F4.8°C 65% 2.2 mph N3.5 kmh N 13.0 mph20.9 kmh 30.21 in1023.0 mb 0.00 in0.0 mm 0.00 in0.0 mm 0.00 in0.0 mm
09:51 AM 52.1°F11.2°C 40.7°F4.8°C 65% 5.6 mph NNW9.0 kmh NNW 13.0 mph20.9 kmh 30.21 in1023.0 mb 0.00 in0.0 mm 0.00 in0.0 mm 0.00 in0.0 mm
09:56 AM 52.5°F11.4°C 40.3°F4.6°C 63% 4.1 mph N6.6 kmh N 13.0 mph20.9 kmh 30.21 in1023.0 mb 0.00 in0.0 mm 0.00 in0.0 mm 0.00 in0.0 mm
10:01 AM 52.5°F11.4°C 40.3°F4.6°C 63% 4.9 mph NNW7.9 kmh NNW 13.0 mph20.9 kmh 30.21 in1023.0 mb 0.00 in0.0 mm 0.00 in0.0 mm 0.00 in0.0 mm
10:06 AM 52.9°F11.6°C 40.6°F4.8°C 63% 2.8 mph NNW4.5 kmh NNW 11.0 mph17.7 kmh 30.21 in1023.0 mb 0.00 in0.0 mm 0.00 in0.0 mm 0.00 in0.0 mm
10:11 AM 53.4°F11.9°C 40.7°F4.8°C 62% 3.7 mph NNW6.0 kmh NNW 11.0 mph17.7 kmh 30.21 in1023.0 mb 0.00 in0.0 mm 0.00 in0.0 mm 0.00 in0.0 mm
10:16 AM 53.4°F11.9°C 40.8°F4.9°C 62% 4.0 mph NNW6.4 kmh NNW 11.0 mph17.7 kmh 30.22 in1023.4 mb 0.00 in0.0 mm 0.00 in0.0 mm 0.00 in0.0 mm
10:21 AM 53.7°F12.1°C 41.1°F5.1°C 62% 2.0 mph N3.2 kmh N 10.0 mph16.1 kmh 30.21 in1023.0 mb 0.00 in0.0 mm 0.00 in0.0 mm 0.00 in0.0 mm
10:26 AM 54.1°F12.3°C 41.1°F5.1°C 61% 3.7 mph NW6.0 kmh NW 10.0 mph16.1 kmh 30.21 in1023.0 mb 0.00 in0.0 mm 0.00 in0.0 mm 0.00 in0.0 mm
10:31 AM 54.3°F12.4°C 40.8°F4.9°C 60% 2.2 mph NNW3.5 kmh NNW 8.0 mph12.9 kmh 30.22 in1023.4 mb 0.00 in0.0 mm 0.00 in0.0 mm 0.00 in0.0 mm
10:36 AM 54.4°F12.4°C 40.9°F4.9°C 60% 1.4 mph N2.3 kmh N 8.0 mph12.9 kmh 30.22 in1023.4 mb 0.00 in0.0 mm 0.00 in0.0 mm 0.00 in0.0 mm
10:41 AM 54.8°F12.7°C 40.3°F4.6°C 58% 2.5 mph NNW4.0 kmh NNW 8.0 mph12.9 kmh 30.21 in1023.0 mb 0.00 in0.0 mm 0.00 in0.0 mm 0.00 in0.0 mm
10:46 AM 55.0°F12.8°C 40.5°F4.7°C 58% 2.5 mph NNE4.0 kmh NNE 7.0 mph11.3 kmh 30.21 in1023.0 mb 0.00 in0.0 mm 0.00 in0.0 mm 0.00 in0.0 mm
10:51 AM 55.4°F13.0°C 41.4°F5.2°C 59% 2.9 mph NE4.7 kmh NE 7.0 mph11.3 kmh 30.21 in1023.0 mb 0.00 in0.0 mm 0.00 in0.0 mm 0.00 in0.0 mm
10:56 AM 55.8°F13.2°C 41.3°F5.2°C 58% 2.7 mph N4.3 kmh N 7.0 mph11.3 kmh 30.21 in1023.0 mb 0.00 in0.0 mm 0.00 in0.0 mm 0.00 in0.0 mm
11:01 AM 56.3°F13.5°C 41.8°F5.4°C 58% 1.8 mph N2.9 kmh N 7.0 mph11.3 kmh 30.21 in1023.0 mb 0.00 in0.0 mm 0.00 in0.0 mm 0.00 in0.0 mm
11:06 AM 56.3°F13.5°C 40.9°F4.9°C 56% 2.8 mph 4.5 kmh 9.0 mph14.5 kmh 30.21 in1023.0 mb 0.00 in0.0 mm 0.00 in0.0 mm 0.00 in0.0 mm
11:11 AM 56.5°F13.6°C 41.5°F5.3°C 57% 2.0 mph N3.2 kmh N 9.0 mph14.5 kmh 30.21 in1023.0 mb 0.00 in0.0 mm 0.00 in0.0 mm 0.00 in0.0 mm
11:16 AM 56.9°F13.8°C 41.0°F5.0°C 55% 3.1 mph NNE5.0 kmh NNE 9.0 mph14.5 kmh 30.21 in1023.0 mb 0.00 in0.0 mm 0.00 in0.0 mm 0.00 in0.0 mm
11:21 AM 57.2°F14.0°C 41.2°F5.1°C 55% 2.2 mph NNE3.5 kmh NNE 9.0 mph14.5 kmh 30.21 in1023.0 mb 0.00 in0.0 mm 0.00 in0.0 mm 0.00 in0.0 mm
11:26 AM 57.8°F14.3°C 39.8°F4.3°C 51% 4.2 mph NNE6.8 kmh NNE 9.0 mph14.5 kmh 30.21 in1023.0 mb 0.00 in0.0 mm 0.00 in0.0 mm 0.00 in0.0 mm
11:31 AM 57.8°F14.3°C 40.3°F4.6°C 52% 3.1 mph NNW5.0 kmh NNW 9.0 mph14.5 kmh 30.20 in1022.7 mb 0.00 in0.0 mm 0.00 in0.0 mm 0.00 in0.0 mm
11:36 AM 58.0°F14.4°C 40.5°F4.7°C 52% 3.2 mph N5.1 kmh N 9.0 mph14.5 kmh 30.21 in1023.0 mb 0.00 in0.0 mm 0.00 in0.0 mm 0.00 in0.0 mm
11:41 AM 58.1°F14.5°C 39.6°F4.2°C 50% 2.8 mph NNW4.5 kmh NNW 10.0 mph16.1 kmh 30.21 in1023.0 mb 0.00 in0.0 mm 0.00 in0.0 mm 0.00 in0.0 mm
11:46 AM 58.4°F14.7°C 40.4°F4.7°C 51% 2.0 mph N3.2 kmh N 11.0 mph17.7 kmh 30.20 in1022.7 mb 0.00 in0.0 mm 0.00 in0.0 mm 0.00 in0.0 mm
11:51 AM 58.8°F14.9°C 39.7°F4.3°C 49% 4.5 mph NE7.2 kmh NE 11.0 mph17.7 kmh 30.20 in1022.7 mb 0.00 in0.0 mm 0.00 in0.0 mm 0.00 in0.0 mm
11:56 AM 58.7°F14.8°C 39.6°F4.2°C 49% 3.6 mph NE5.8 kmh NE 11.0 mph17.7 kmh 30.20 in1022.7 mb 0.00 in0.0 mm 0.00 in0.0 mm 0.00 in0.0 mm
12:01 PM 58.9°F14.9°C 39.8°F4.3°C 49% 2.8 mph N4.5 kmh N 11.0 mph17.7 kmh 30.20 in1022.7 mb 0.00 in0.0 mm 0.00 in0.0 mm 0.00 in0.0 mm
12:06 PM 59.2°F15.1°C 39.5°F4.2°C 48% 2.9 mph N4.7 kmh N 10.0 mph16.1 kmh 30.19 in1022.4 mb 0.00 in0.0 mm 0.00 in0.0 mm 0.00 in0.0 mm
12:11 PM 59.2°F15.1°C 38.4°F3.6°C 46% 3.4 mph NNE5.5 kmh NNE 13.0 mph20.9 kmh 30.19 in1022.4 mb 0.00 in0.0 mm 0.00 in0.0 mm 0.00 in0.0 mm
12:16 PM 59.5°F15.3°C 39.2°F4.0°C 47% 2.8 mph NNW4.5 kmh NNW 13.0 mph20.9 kmh 30.19 in1022.4 mb 0.00 in0.0 mm 0.00 in0.0 mm 0.00 in0.0 mm
12:21 PM 59.6°F15.3°C 38.7°F3.7°C 46% 6.2 mph NE10.0 kmh NE 14.0 mph22.5 kmh 30.19 in1022.4 mb 0.00 in0.0 mm 0.00 in0.0 mm 0.00 in0.0 mm
12:26 PM 59.8°F15.4°C 39.0°F3.9°C 46% 2.2 mph NW3.5 kmh NW 14.0 mph22.5 kmh 30.19 in1022.4 mb 0.00 in0.0 mm 0.00 in0.0 mm 0.00 in0.0 mm
12:31 PM 60.0°F15.6°C 39.1°F3.9°C 46% 2.6 mph NNW4.2 kmh NNW 14.0 mph22.5 kmh 30.19 in1022.4 mb 0.00 in0.0 mm 0.00 in0.0 mm 0.00 in0.0 mm
12:36 PM 60.0°F15.6°C 38.5°F3.6°C 45% 3.3 mph NNE5.3 kmh NNE 14.0 mph22.5 kmh 30.19 in1022.4 mb 0.00 in0.0 mm 0.00 in0.0 mm 0.00 in0.0 mm
12:41 PM 60.0°F15.6°C 39.1°F3.9°C 46% 2.1 mph N3.4 kmh N 8.0 mph12.9 kmh 30.18 in1022.0 mb 0.00 in0.0 mm 0.00 in0.0 mm 0.00 in0.0 mm
12:46 PM 60.4°F15.8°C 38.9°F3.8°C 45% 2.3 mph N3.7 kmh N 7.0 mph11.3 kmh 30.18 in1022.0 mb 0.00 in0.0 mm 0.00 in0.0 mm 0.00 in0.0 mm
12:51 PM 60.8°F16.0°C 39.2°F4.0°C 45% 2.7 mph NNE4.3 kmh NNE 7.0 mph11.3 kmh 30.18 in1022.0 mb 0.00 in0.0 mm 0.00 in0.0 mm 0.00 in0.0 mm
12:56 PM 60.9°F16.1°C 39.3°F4.1°C 45% 3.0 mph W4.8 kmh W 9.0 mph14.5 kmh 30.18 in1022.0 mb 0.00 in0.0 mm 0.00 in0.0 mm 0.00 in0.0 mm
01:01 PM 60.9°F16.1°C 38.7°F3.7°C 44% 2.3 mph NW3.7 kmh NW 9.0 mph14.5 kmh 30.18 in1022.0 mb 0.00 in0.0 mm 0.00 in0.0 mm 0.00 in0.0 mm
01:06 PM 61.1°F16.2°C 38.3°F3.5°C 43% 2.6 mph N4.2 kmh N 9.0 mph14.5 kmh 30.18 in1022.0 mb 0.00 in0.0 mm 0.00 in0.0 mm 0.00 in0.0 mm
01:11 PM 61.4°F16.3°C 38.6°F3.7°C 43% 1.8 mph NNE2.9 kmh NNE 9.0 mph14.5 kmh 30.17 in1021.7 mb 0.00 in0.0 mm 0.00 in0.0 mm 0.00 in0.0 mm
01:16 PM 61.8°F16.6°C 38.3°F3.5°C 42% 2.4 mph N3.9 kmh N 9.0 mph14.5 kmh 30.17 in1021.7 mb 0.00 in0.0 mm 0.00 in0.0 mm 0.00 in0.0 mm
01:21 PM 61.6°F16.4°C 38.8°F3.8°C 43% 3.2 mph NNW5.1 kmh NNW 9.0 mph14.5 kmh 30.17 in1021.7 mb 0.00 in0.0 mm 0.00 in0.0 mm 0.00 in0.0 mm
01:26 PM 61.7°F16.5°C 38.9°F3.8°C 43% 2.0 mph NNW3.2 kmh NNW 9.0 mph14.5 kmh 30.17 in1021.7 mb 0.00 in0.0 mm 0.00 in0.0 mm 0.00 in0.0 mm
01:31 PM 61.8°F16.6°C 39.0°F3.9°C 43% 2.3 mph NW3.7 kmh NW 7.0 mph11.3 kmh 30.17 in1021.7 mb 0.00 in0.0 mm 0.00 in0.0 mm 0.00 in0.0 mm
01:36 PM 61.8°F16.6°C 39.0°F3.9°C 43% 2.0 mph N3.2 kmh N 7.0 mph11.3 kmh 30.17 in1021.7 mb 0.00 in0.0 mm 0.00 in0.0 mm 0.00 in0.0 mm
01:41 PM 62.2°F16.8°C 39.3°F4.1°C 43% 1.8 mph NW2.9 kmh NW 7.0 mph11.3 kmh 30.17 in1021.7 mb 0.00 in0.0 mm 0.00 in0.0 mm 0.00 in0.0 mm
01:46 PM 62.2°F16.8°C 38.1°F3.4°C 41% 2.7 mph WNW4.3 kmh WNW 9.0 mph14.5 kmh 30.17 in1021.7 mb 0.00 in0.0 mm 0.00 in0.0 mm 0.00 in0.0 mm
01:51 PM 62.5°F16.9°C 38.3°F3.5°C 41% 2.8 mph N4.5 kmh N 9.0 mph14.5 kmh 30.17 in1021.7 mb 0.00 in0.0 mm 0.00 in0.0 mm 0.00 in0.0 mm
01:56 PM 62.4°F16.9°C 36.9°F2.7°C 39% 4.7 mph NW7.6 kmh NW 9.0 mph14.5 kmh 30.17 in1021.7 mb 0.00 in0.0 mm 0.00 in0.0 mm 0.00 in0.0 mm
02:01 PM 62.7°F17.1°C 38.5°F3.6°C 41% 1.6 mph NNW2.6 kmh NNW 9.0 mph14.5 kmh 30.16 in1021.3 mb 0.00 in0.0 mm 0.00 in0.0 mm 0.00 in0.0 mm
02:06 PM 62.6°F17.0°C 37.1°F2.8°C 39% 3.8 mph NE6.1 kmh NE 8.0 mph12.9 kmh 30.16 in1021.3 mb 0.00 in0.0 mm 0.00 in0.0 mm 0.00 in0.0 mm
02:11 PM 62.6°F17.0°C 37.8°F3.2°C 40% 2.1 mph NNE3.4 kmh NNE 8.0 mph12.9 kmh 30.16 in1021.3 mb 0.00 in0.0 mm 0.00 in0.0 mm 0.00 in0.0 mm
02:16 PM 62.6°F17.0°C 37.8°F3.2°C 40% 4.0 mph NNE6.4 kmh NNE 8.0 mph12.9 kmh 30.16 in1021.3 mb 0.00 in0.0 mm 0.00 in0.0 mm 0.00 in0.0 mm
02:21 PM 62.9°F17.2°C 38.7°F3.7°C 41% 1.5 mph NW2.4 kmh NW 8.0 mph12.9 kmh 30.16 in1021.3 mb 0.00 in0.0 mm 0.00 in0.0 mm 0.00 in0.0 mm
02:26 PM 63.4°F17.4°C 38.5°F3.6°C 40% 2.1 mph NNE3.4 kmh NNE 11.0 mph17.7 kmh 30.16 in1021.3 mb 0.00 in0.0 mm 0.00 in0.0 mm 0.00 in0.0 mm
02:31 PM 63.3°F17.4°C 38.4°F3.6°C 40% 1.5 mph NE2.4 kmh NE 11.0 mph17.7 kmh 30.16 in1021.3 mb 0.00 in0.0 mm 0.00 in0.0 mm 0.00 in0.0 mm
02:36 PM 63.3°F17.4°C 37.1°F2.8°C 38% 4.4 mph NW7.1 kmh NW 11.0 mph17.7 kmh 30.16 in1021.3 mb 0.00 in0.0 mm 0.00 in0.0 mm 0.00 in0.0 mm
02:41 PM 63.5°F17.5°C 37.9°F3.3°C 39% 2.4 mph NNE3.9 kmh NNE 8.0 mph12.9 kmh 30.16 in1021.3 mb 0.00 in0.0 mm 0.00 in0.0 mm 0.00 in0.0 mm
02:45 PM 63.5°F17.5°C 38.6°F3.7°C 40% 3.1 mph NE5.0 kmh NE 8.0 mph12.9 kmh 30.16 in1021.3 mb 0.00 in0.0 mm 0.00 in0.0 mm 0.00 in0.0 mm
02:50 PM 63.8°F17.7°C 38.2°F3.4°C 39% 1.4 mph NW2.3 kmh NW 8.0 mph12.9 kmh 30.16 in1021.3 mb 0.00 in0.0 mm 0.00 in0.0 mm 0.00 in0.0 mm
02:55 PM 63.8°F17.7°C 37.5°F3.1°C 38% 1.7 mph NNE2.7 kmh NNE 7.0 mph11.3 kmh 30.16 in1021.3 mb 0.00 in0.0 mm 0.00 in0.0 mm 0.00 in0.0 mm
03:00 PM 63.7°F17.6°C 37.4°F3.0°C 38% 2.3 mph NNE3.7 kmh NNE 8.0 mph12.9 kmh 30.16 in1021.3 mb 0.00 in0.0 mm 0.00 in0.0 mm 0.00 in0.0 mm
03:05 PM 63.7°F17.6°C 37.4°F3.0°C 38% 2.9 mph NE4.7 kmh NE 8.0 mph12.9 kmh 30.16 in1021.3 mb 0.00 in0.0 mm 0.00 in0.0 mm 0.00 in0.0 mm
03:10 PM 63.8°F17.7°C 38.2°F3.4°C 39% 2.2 mph NW3.5 kmh NW 8.0 mph12.9 kmh 30.16 in1021.3 mb 0.00 in0.0 mm 0.00 in0.0 mm 0.00 in0.0 mm
03:15 PM 63.9°F17.7°C 38.3°F3.5°C 39% 3.0 mph WNW4.8 kmh WNW 8.0 mph12.9 kmh 30.16 in1021.3 mb 0.00 in0.0 mm 0.00 in0.0 mm 0.00 in0.0 mm
03:20 PM 63.9°F17.7°C 37.6°F3.1°C 38% 2.5 mph NNW4.0 kmh NNW 8.0 mph12.9 kmh 30.17 in1021.7 mb 0.00 in0.0 mm 0.00 in0.0 mm 0.00 in0.0 mm
03:25 PM 63.9°F17.7°C 38.3°F3.5°C 39% 1.7 mph NW2.7 kmh NW 8.0 mph12.9 kmh 30.17 in1021.7 mb 0.00 in0.0 mm 0.00 in0.0 mm 0.00 in0.0 mm
03:30 PM 63.9°F17.7°C 36.9°F2.7°C 37% 2.0 mph NW3.2 kmh NW 8.0 mph12.9 kmh 30.17 in1021.7 mb 0.00 in0.0 mm 0.00 in0.0 mm 0.00 in0.0 mm
03:35 PM 63.8°F17.7°C 37.5°F3.1°C 38% 1.8 mph WNW2.9 kmh WNW 7.0 mph11.3 kmh 30.17 in1021.7 mb 0.00 in0.0 mm 0.00 in0.0 mm 0.00 in0.0 mm
03:40 PM 64.1°F17.8°C 38.5°F3.6°C 39% 1.2 mph WNW1.9 kmh WNW 7.0 mph11.3 kmh 30.17 in1021.7 mb 0.00 in0.0 mm 0.00 in0.0 mm 0.00 in0.0 mm
03:45 PM 64.2°F17.9°C 38.6°F3.7°C 39% Calm Calm 6.0 mph9.7 kmh 30.17 in1021.7 mb 0.00 in0.0 mm 0.00 in0.0 mm 0.00 in0.0 mm
03:50 PM 64.5°F18.1°C 38.2°F3.4°C 38% Calm Calm 6.0 mph9.7 kmh 30.17 in1021.7 mb 0.00 in0.0 mm 0.00 in0.0 mm 0.00 in0.0 mm
03:55 PM 65.0°F18.3°C 38.1°F3.4°C 37% Calm Calm 5.0 mph8.0 kmh 30.17 in1021.7 mb 0.00 in0.0 mm 0.00 in0.0 mm 0.00 in0.0 mm
04:00 PM 64.9°F18.3°C 38.7°F3.7°C 38% 1.6 mph WNW2.6 kmh WNW 4.0 mph6.4 kmh 30.17 in1021.7 mb 0.00 in0.0 mm 0.00 in0.0 mm 0.00 in0.0 mm
04:05 PM 64.5°F18.1°C 37.5°F3.1°C 37% 1.7 mph NW2.7 kmh NW 4.0 mph6.4 kmh 30.17 in1021.7 mb 0.00 in0.0 mm 0.00 in0.0 mm 0.00 in0.0 mm
04:10 PM 64.3°F17.9°C 37.5°F3.1°C 37% 1.9 mph NW3.1 kmh NW 4.0 mph6.4 kmh 30.17 in1021.7 mb 0.00 in0.0 mm 0.00 in0.0 mm 0.00 in0.0 mm
04:15 PM 64.2°F17.9°C 37.9°F3.3°C 38% 2.1 mph NE3.4 kmh NE 4.0 mph6.4 kmh 30.17 in1021.7 mb 0.00 in0.0 mm 0.00 in0.0 mm 0.00 in0.0 mm
04:20 PM 63.8°F17.7°C 38.2°F3.4°C 39% 2.0 mph NNE3.2 kmh NNE 4.0 mph6.4 kmh 30.18 in1022.0 mb 0.00 in0.0 mm 0.00 in0.0 mm 0.00 in0.0 mm
04:25 PM 63.6°F17.6°C 37.3°F2.9°C 38% 1.9 mph NE3.1 kmh NE 5.0 mph8.0 kmh 30.18 in1022.0 mb 0.00 in0.0 mm 0.00 in0.0 mm 0.00 in0.0 mm
04:30 PM 63.9°F17.7°C 38.3°F3.5°C 39% Calm Calm 5.0 mph8.0 kmh 30.18 in1022.0 mb 0.00 in0.0 mm 0.00 in0.0 mm 0.00 in0.0 mm
04:35 PM 64.1°F17.8°C 38.5°F3.6°C 39% 1.2 mph WNW1.9 kmh WNW 5.0 mph8.0 kmh 30.18 in1022.0 mb 0.00 in0.0 mm 0.00 in0.0 mm 0.00 in0.0 mm
04:40 PM 64.1°F17.8°C 38.5°F3.6°C 39% 1.8 mph NW2.9 kmh NW 5.0 mph8.0 kmh 30.18 in1022.0 mb 0.00 in0.0 mm 0.00 in0.0 mm 0.00 in0.0 mm
04:45 PM 63.9°F17.7°C 38.3°F3.5°C 39% Calm Calm 2.0 mph3.2 kmh 30.18 in1022.0 mb 0.00 in0.0 mm 0.00 in0.0 mm 0.00 in0.0 mm
04:50 PM 63.7°F17.6°C 37.4°F3.0°C 38% 1.0 mph NW1.6 kmh NW 2.0 mph3.2 kmh 30.18 in1022.0 mb 0.00 in0.0 mm 0.00 in0.0 mm 0.00 in0.0 mm
04:55 PM 63.7°F17.6°C 38.8°F3.8°C 40% Calm Calm 2.0 mph3.2 kmh 30.18 in1022.0 mb 0.00 in0.0 mm 0.00 in0.0 mm 0.00 in0.0 mm
05:00 PM 63.4°F17.4°C 38.5°F3.6°C 40% 1.0 mph NW1.6 kmh NW 1.0 mph1.6 kmh 30.18 in1022.0 mb 0.00 in0.0 mm 0.00 in0.0 mm 0.00 in0.0 mm
05:05 PM 62.8°F17.1°C 38.6°F3.7°C 41% 1.0 mph N1.6 kmh N 1.0 mph1.6 kmh 30.18 in1022.0 mb 0.00 in0.0 mm 0.00 in0.0 mm 0.00 in0.0 mm
05:10 PM 62.4°F16.9°C 38.2°F3.4°C 41% Calm Calm 1.0 mph1.6 kmh 30.18 in1022.0 mb 0.00 in0.0 mm 0.00 in0.0 mm 0.00 in0.0 mm
05:15 PM 62.3°F16.8°C 38.2°F3.4°C 41% 1.0 mph NNE1.6 kmh NNE 1.0 mph1.6 kmh 30.18 in1022.0 mb 0.00 in0.0 mm 0.00 in0.0 mm 0.00 in0.0 mm
05:20 PM 62.0°F16.7°C 38.5°F3.6°C 42% Calm Calm 1.0 mph1.6 kmh 30.18 in1022.0 mb 0.00 in0.0 mm 0.00 in0.0 mm 0.00 in0.0 mm
05:25 PM 61.7°F16.5°C 38.9°F3.8°C 43% Calm Calm 1.0 mph1.6 kmh 30.18 in1022.0 mb 0.00 in0.0 mm 0.00 in0.0 mm 0.00 in0.0 mm
05:30 PM 61.3°F16.3°C 38.5°F3.6°C 43% Calm Calm 1.0 mph1.6 kmh 30.18 in1022.0 mb 0.00 in0.0 mm 0.00 in0.0 mm 0.00 in0.0 mm
05:35 PM 60.8°F16.0°C 38.7°F3.7°C 44% Calm Calm 1.0 mph1.6 kmh 30.19 in1022.4 mb 0.00 in0.0 mm 0.00 in0.0 mm 0.00 in0.0 mm
05:40 PM 60.3°F15.7°C 38.8°F3.8°C 45% Calm Calm 1.0 mph1.6 kmh 30.19 in1022.4 mb 0.00 in0.0 mm 0.00 in0.0 mm 0.00 in0.0 mm
05:45 PM 59.8°F15.4°C 38.9°F3.8°C 46% Calm Calm -- 30.19 in1022.4 mb 0.00 in0.0 mm 0.00 in0.0 mm 0.00 in0.0 mm
05:50 PM 60.0°F15.6°C 39.1°F3.9°C 46% Calm Calm -- 30.19 in1022.4 mb 0.00 in0.0 mm 0.00 in0.0 mm 0.00 in0.0 mm
05:55 PM 60.0°F15.6°C 39.1°F3.9°C 46% Calm Calm -- 30.19 in1022.4 mb 0.00 in0.0 mm 0.00 in0.0 mm 0.00 in0.0 mm
06:00 PM 59.8°F15.4°C 38.9°F3.8°C 46% Calm Calm -- 30.19 in1022.4 mb 0.00 in0.0 mm 0.00 in0.0 mm 0.00 in0.0 mm
06:05 PM 59.5°F15.3°C 39.2°F4.0°C 47% Calm Calm -- 30.20 in1022.7 mb 0.00 in0.0 mm 0.00 in0.0 mm 0.00 in0.0 mm
06:10 PM 59.5°F15.3°C 38.6°F3.7°C 46% Calm Calm -- 30.20 in1022.7 mb 0.00 in0.0 mm 0.00 in0.0 mm 0.00 in0.0 mm
06:15 PM 59.3°F15.2°C 39.0°F3.9°C 47% Calm Calm -- 30.20 in1022.7 mb 0.00 in0.0 mm 0.00 in0.0 mm 0.00 in0.0 mm
06:20 PM 58.9°F14.9°C 39.2°F4.0°C 48% Calm Calm -- 30.20 in1022.7 mb 0.00 in0.0 mm 0.00 in0.0 mm 0.00 in0.0 mm
06:25 PM 58.4°F14.7°C 39.8°F4.3°C 50% Calm Calm -- 30.20 in1022.7 mb 0.00 in0.0 mm 0.00 in0.0 mm 0.00 in0.0 mm
06:30 PM 58.3°F14.6°C 39.2°F4.0°C 49% Calm Calm -- 30.20 in1022.7 mb 0.00 in0.0 mm 0.00 in0.0 mm 0.00 in0.0 mm
06:35 PM 58.3°F14.6°C 38.7°F3.7°C 48% Calm Calm -- 30.21 in1023.0 mb 0.00 in0.0 mm 0.00 in0.0 mm 0.00 in0.0 mm
06:40 PM 58.1°F14.5°C 38.5°F3.6°C 48% Calm Calm -- 30.21 in1023.0 mb 0.00 in0.0 mm 0.00 in0.0 mm 0.00 in0.0 mm
06:45 PM 58.0°F14.4°C 38.4°F3.6°C 48% Calm Calm -- 30.21 in1023.0 mb 0.00 in0.0 mm 0.00 in0.0 mm 0.00 in0.0 mm
06:50 PM 58.4°F14.7°C 38.8°F3.8°C 48% Calm Calm -- 30.21 in1023.0 mb 0.00 in0.0 mm 0.00 in0.0 mm 0.00 in0.0 mm
06:55 PM 58.8°F14.9°C 38.6°F3.7°C 47% Calm Calm -- 30.21 in1023.0 mb 0.00 in0.0 mm 0.00 in0.0 mm 0.00 in0.0 mm
07:00 PM 58.8°F14.9°C 38.6°F3.7°C 47% Calm Calm -- 30.21 in1023.0 mb 0.00 in0.0 mm 0.00 in0.0 mm 0.00 in0.0 mm
07:05 PM 58.4°F14.7°C 38.8°F3.8°C 48% Calm Calm -- 30.21 in1023.0 mb 0.00 in0.0 mm 0.00 in0.0 mm 0.00 in0.0 mm
07:10 PM 58.2°F14.6°C 39.1°F3.9°C 49% Calm Calm -- 30.21 in1023.0 mb 0.00 in0.0 mm 0.00 in0.0 mm 0.00 in0.0 mm
07:15 PM 57.5°F14.2°C 39.0°F3.9°C 50% Calm Calm -- 30.21 in1023.0 mb 0.00 in0.0 mm 0.00 in0.0 mm 0.00 in0.0 mm
07:20 PM 56.6°F13.7°C 38.7°F3.7°C 51% Calm Calm -- 30.22 in1023.4 mb 0.00 in0.0 mm 0.00 in0.0 mm 0.00 in0.0 mm
07:25 PM 55.8°F13.2°C 39.5°F4.2°C 54% Calm Calm 1.0 mph1.6 kmh 30.22 in1023.4 mb 0.00 in0.0 mm 0.00 in0.0 mm 0.00 in0.0 mm
07:30 PM 55.5°F13.1°C 39.2°F4.0°C 54% 1.3 mph W2.1 kmh W 2.0 mph3.2 kmh 30.22 in1023.4 mb 0.00 in0.0 mm 0.00 in0.0 mm 0.00 in0.0 mm
07:35 PM 56.5°F13.6°C 38.6°F3.7°C 51% 1.0 mph WNW1.6 kmh WNW 3.0 mph4.8 kmh 30.22 in1023.4 mb 0.00 in0.0 mm 0.00 in0.0 mm 0.00 in0.0 mm
07:40 PM 57.1°F13.9°C 38.1°F3.4°C 49% Calm Calm 3.0 mph4.8 kmh 30.22 in1023.4 mb 0.00 in0.0 mm 0.00 in0.0 mm 0.00 in0.0 mm
07:45 PM 57.4°F14.1°C 38.4°F3.6°C 49% Calm Calm 3.0 mph4.8 kmh 30.22 in1023.4 mb 0.00 in0.0 mm 0.00 in0.0 mm 0.00 in0.0 mm
07:50 PM 57.3°F14.1°C 38.3°F3.5°C 49% Calm Calm 3.0 mph4.8 kmh 30.22 in1023.4 mb 0.00 in0.0 mm 0.00 in0.0 mm 0.00 in0.0 mm
07:55 PM 57.5°F14.2°C 37.9°F3.3°C 48% Calm Calm 2.0 mph3.2 kmh 30.22 in1023.4 mb 0.00 in0.0 mm 0.00 in0.0 mm 0.00 in0.0 mm
08:00 PM 57.4°F14.1°C 37.8°F3.2°C 48% Calm Calm 1.0 mph1.6 kmh 30.23 in1023.7 mb 0.00 in0.0 mm 0.00 in0.0 mm 0.00 in0.0 mm
08:05 PM 57.2°F14.0°C 38.2°F3.4°C 49% Calm Calm -- 30.23 in1023.7 mb 0.00 in0.0 mm 0.00 in0.0 mm 0.00 in0.0 mm
08:10 PM 56.8°F13.8°C 37.8°F3.2°C 49% Calm Calm -- 30.23 in1023.7 mb 0.00 in0.0 mm 0.00 in0.0 mm 0.00 in0.0 mm
08:15 PM 56.3°F13.5°C 37.4°F3.0°C 49% Calm Calm -- 30.23 in1023.7 mb 0.00 in0.0 mm 0.00 in0.0 mm 0.00 in0.0 mm
08:21 PM 56.2°F13.4°C 37.8°F3.2°C 50% Calm Calm -- 30.24 in1024.0 mb 0.00 in0.0 mm 0.00 in0.0 mm 0.00 in0.0 mm
08:25 PM 56.6°F13.7°C 37.6°F3.1°C 49% Calm Calm -- 30.24 in1024.0 mb 0.00 in0.0 mm 0.00 in0.0 mm 0.00 in0.0 mm
08:30 PM 56.2°F13.4°C 37.3°F2.9°C 49% Calm Calm -- 30.24 in1024.0 mb 0.00 in0.0 mm 0.00 in0.0 mm 0.00 in0.0 mm
08:35 PM 55.6°F13.1°C 37.8°F3.2°C 51% 1.0 mph WNW1.6 kmh WNW 1.0 mph1.6 kmh 30.24 in1024.0 mb 0.00 in0.0 mm 0.00 in0.0 mm 0.00 in0.0 mm
08:41 PM 55.2°F12.9°C 37.9°F3.3°C 52% Calm Calm 1.0 mph1.6 kmh 30.25 in1024.4 mb 0.00 in0.0 mm 0.00 in0.0 mm 0.00 in0.0 mm
08:44 PM 54.9°F12.7°C 37.1°F2.8°C 51% Calm Calm 1.0 mph1.6 kmh 30.25 in1024.4 mb 0.00 in0.0 mm 0.00 in0.0 mm 0.00 in0.0 mm
08:49 PM 54.7°F12.6°C 37.9°F3.3°C 53% Calm Calm 1.0 mph1.6 kmh 30.25 in1024.4 mb 0.00 in0.0 mm 0.00 in0.0 mm 0.00 in0.0 mm
08:54 PM 55.4°F13.0°C 38.1°F3.4°C 52% Calm Calm -- 30.25 in1024.4 mb 0.00 in0.0 mm 0.00 in0.0 mm 0.00 in0.0 mm
08:59 PM 55.7°F13.2°C 37.9°F3.3°C 51% Calm Calm -- 30.25 in1024.4 mb 0.00 in0.0 mm 0.00 in0.0 mm 0.00 in0.0 mm
09:04 PM 55.4°F13.0°C 37.6°F3.1°C 51% Calm Calm -- 30.26 in1024.7 mb 0.00 in0.0 mm 0.00 in0.0 mm 0.00 in0.0 mm
09:09 PM 55.9°F13.3°C 38.0°F3.3°C 51% Calm Calm -- 30.26 in1024.7 mb 0.00 in0.0 mm 0.00 in0.0 mm 0.00 in0.0 mm
09:14 PM 56.1°F13.4°C 38.2°F3.4°C 51% Calm Calm -- 30.25 in1024.4 mb 0.00 in0.0 mm 0.00 in0.0 mm 0.00 in0.0 mm
09:19 PM 55.5°F13.1°C 37.7°F3.2°C 51% Calm Calm -- 30.26 in1024.7 mb 0.00 in0.0 mm 0.00 in0.0 mm 0.00 in0.0 mm
09:24 PM 54.1°F12.3°C 37.8°F3.2°C 54% Calm Calm -- 30.26 in1024.7 mb 0.00 in0.0 mm 0.00 in0.0 mm 0.00 in0.0 mm
09:29 PM 53.2°F11.8°C 38.8°F3.8°C 58% Calm Calm -- 30.26 in1024.7 mb 0.00 in0.0 mm 0.00 in0.0 mm 0.00 in0.0 mm
09:34 PM 52.8°F11.6°C 38.5°F3.6°C 58% Calm Calm 1.0 mph1.6 kmh 30.26 in1024.7 mb 0.00 in0.0 mm 0.00 in0.0 mm 0.00 in0.0 mm
09:39 PM 52.8°F11.6°C 38.5°F3.6°C 58% Calm Calm 1.0 mph1.6 kmh 30.25 in1024.4 mb 0.00 in0.0 mm 0.00 in0.0 mm 0.00 in0.0 mm
09:44 PM 53.4°F11.9°C 38.2°F3.4°C 56% Calm Calm 1.0 mph1.6 kmh 30.25 in1024.4 mb 0.00 in0.0 mm 0.00 in0.0 mm 0.00 in0.0 mm
09:49 PM 54.2°F12.3°C 38.9°F3.8°C 56% Calm Calm -- 30.25 in1024.4 mb 0.00 in0.0 mm 0.00 in0.0 mm 0.00 in0.0 mm
09:54 PM 55.0°F12.8°C 38.7°F3.7°C 54% 1.0 mph ENE1.6 kmh ENE 2.0 mph3.2 kmh 30.25 in1024.4 mb 0.00 in0.0 mm 0.00 in0.0 mm 0.00 in0.0 mm
09:59 PM 55.4°F13.0°C 39.1°F3.9°C 54% Calm Calm 2.0 mph3.2 kmh 30.25 in1024.4 mb 0.00 in0.0 mm 0.00 in0.0 mm 0.00 in0.0 mm
10:04 PM 55.3°F12.9°C 39.0°F3.9°C 54% Calm Calm 2.0 mph3.2 kmh 30.25 in1024.4 mb 0.00 in0.0 mm 0.00 in0.0 mm 0.00 in0.0 mm
10:09 PM 55.2°F12.9°C 38.9°F3.8°C 54% 1.0 mph E1.6 kmh E 2.0 mph3.2 kmh 30.24 in1024.0 mb 0.00 in0.0 mm 0.00 in0.0 mm 0.00 in0.0 mm
10:14 PM 55.2°F12.9°C 38.9°F3.8°C 54% Calm Calm 1.0 mph1.6 kmh 30.24 in1024.0 mb 0.00 in0.0 mm 0.00 in0.0 mm 0.00 in0.0 mm
10:19 PM 55.0°F12.8°C 39.1°F3.9°C 55% Calm Calm 1.0 mph1.6 kmh 30.24 in1024.0 mb 0.00 in0.0 mm 0.00 in0.0 mm 0.00 in0.0 mm
10:24 PM 54.7°F12.6°C 39.4°F4.1°C 56% Calm Calm 1.0 mph1.6 kmh 30.24 in1024.0 mb 0.00 in0.0 mm 0.00 in0.0 mm 0.00 in0.0 mm
10:29 PM 54.4°F12.4°C 39.1°F3.9°C 56% Calm Calm 1.0 mph1.6 kmh 30.25 in1024.4 mb 0.00 in0.0 mm 0.00 in0.0 mm 0.00 in0.0 mm
10:34 PM 54.1°F12.3°C 39.3°F4.1°C 57% Calm Calm -- 30.25 in1024.4 mb 0.00 in0.0 mm 0.00 in0.0 mm 0.00 in0.0 mm
10:39 PM 54.0°F12.2°C 39.6°F4.2°C 58% Calm Calm -- 30.25 in1024.4 mb 0.00 in0.0 mm 0.00 in0.0 mm 0.00 in0.0 mm
10:44 PM 54.0°F12.2°C 40.1°F4.5°C 59% Calm Calm -- 30.25 in1024.4 mb 0.00 in0.0 mm 0.00 in0.0 mm 0.00 in0.0 mm
10:49 PM 54.0°F12.2°C 40.1°F4.5°C 59% Calm Calm -- 30.25 in1024.4 mb 0.00 in0.0 mm 0.00 in0.0 mm 0.00 in0.0 mm
10:54 PM 53.7°F12.1°C 39.8°F4.3°C 59% Calm Calm -- 30.25 in1024.4 mb 0.00 in0.0 mm 0.00 in0.0 mm 0.00 in0.0 mm
10:59 PM 53.4°F11.9°C 39.4°F4.1°C 59% Calm Calm -- 30.25 in1024.4 mb 0.00 in0.0 mm 0.00 in0.0 mm 0.00 in0.0 mm
11:04 PM 53.2°F11.8°C 39.8°F4.3°C 60% Calm Calm -- 30.25 in1024.4 mb 0.00 in0.0 mm 0.00 in0.0 mm 0.00 in0.0 mm
11:10 PM 53.7°F12.1°C 40.2°F4.6°C 60% Calm Calm -- 30.24 in1024.0 mb 0.00 in0.0 mm 0.00 in0.0 mm 0.00 in0.0 mm
11:15 PM 53.6°F12.0°C 40.2°F4.6°C 60% Calm Calm -- 30.24 in1024.0 mb 0.00 in0.0 mm 0.00 in0.0 mm 0.00 in0.0 mm
11:19 PM 53.8°F12.1°C 40.3°F4.6°C 60% 1.0 mph E1.6 kmh E 1.0 mph1.6 kmh 30.24 in1024.0 mb 0.00 in0.0 mm 0.00 in0.0 mm 0.00 in0.0 mm
11:25 PM 54.0°F12.2°C 40.1°F4.5°C 59% Calm Calm 1.0 mph1.6 kmh 30.25 in1024.4 mb 0.00 in0.0 mm 0.00 in0.0 mm 0.00 in0.0 mm
11:30 PM 53.8°F12.1°C 39.9°F4.4°C 59% 1.0 mph E1.6 kmh E 1.0 mph1.6 kmh 30.24 in1024.0 mb 0.00 in0.0 mm 0.00 in0.0 mm 0.00 in0.0 mm
11:35 PM 53.5°F11.9°C 40.5°F4.7°C 61% 1.0 mph E1.6 kmh E 1.0 mph1.6 kmh 30.24 in1024.0 mb 0.00 in0.0 mm 0.00 in0.0 mm 0.00 in0.0 mm
11:40 PM 53.1°F11.7°C 40.1°F4.5°C 61% 1.0 mph E1.6 kmh E 2.0 mph3.2 kmh 30.24 in1024.0 mb 0.00 in0.0 mm 0.00 in0.0 mm 0.00 in0.0 mm
11:45 PM 52.6°F11.4°C 40.4°F4.7°C 63% Calm Calm 2.0 mph3.2 kmh 30.24 in1024.0 mb 0.00 in0.0 mm 0.00 in0.0 mm 0.00 in0.0 mm
11:50 PM 52.2°F11.2°C 40.1°F4.5°C 63% Calm Calm 2.0 mph3.2 kmh 30.25 in1024.4 mb 0.00 in0.0 mm 0.00 in0.0 mm 0.00 in0.0 mm
11:55 PM 51.9°F11.1°C 39.8°F4.3°C 63% Calm Calm 2.0 mph3.2 kmh 30.24 in1024.0 mb 0.00 in0.0 mm 0.00 in0.0 mm 0.00 in0.0 mm
11:59 PM 51.6°F10.9°C 39.9°F4.4°C 64% Calm Calm -- 30.24 in1024.0 mb 0.00 in0.0 mm 0.00 in0.0 mm 0.00 in0.0 mm